sensor_id;sensor_type;location;lat;lon;timestamp;temperature;humidity
7117;DHT22;3600;48.568;7.870;2023-05-02T00:01:26;12.30;99.90
7117;DHT22;3600;48.568;7.870;2023-05-02T00:03:53;12.30;99.90
7117;DHT22;3600;48.568;7.870;2023-05-02T00:06:20;12.30;99.90
7117;DHT22;3600;48.568;7.870;2023-05-02T00:08:50;12.10;99.90
7117;DHT22;3600;48.568;7.870;2023-05-02T00:11:17;12.10;99.90
7117;DHT22;3600;48.568;7.870;2023-05-02T00:13:44;11.90;99.90
7117;DHT22;3600;48.568;7.870;2023-05-02T00:16:11;11.70;99.90
7117;DHT22;3600;48.568;7.870;2023-05-02T00:18:37;11.80;99.90
7117;DHT22;3600;48.568;7.870;2023-05-02T00:21:04;11.80;99.90
7117;DHT22;3600;48.568;7.870;2023-05-02T00:23:32;11.60;99.90
7117;DHT22;3600;48.568;7.870;2023-05-02T00:25:59;11.40;99.90
7117;DHT22;3600;48.568;7.870;2023-05-02T00:28:26;11.30;99.90
7117;DHT22;3600;48.568;7.870;2023-05-02T00:30:53;11.50;99.90
7117;DHT22;3600;48.568;7.870;2023-05-02T00:33:19;11.50;99.90
7117;DHT22;3600;48.568;7.870;2023-05-02T00:35:46;11.30;99.90
7117;DHT22;3600;48.568;7.870;2023-05-02T00:38:13;11.40;99.90
7117;DHT22;3600;48.568;7.870;2023-05-02T00:40:47;11.40;99.90
7117;DHT22;3600;48.568;7.870;2023-05-02T00:43:14;11.30;99.90
7117;DHT22;3600;48.568;7.870;2023-05-02T00:45:42;11.20;99.90
7117;DHT22;3600;48.568;7.870;2023-05-02T00:48:10;11.20;99.90
7117;DHT22;3600;48.568;7.870;2023-05-02T00:50:39;11.40;99.90
7117;DHT22;3600;48.568;7.870;2023-05-02T00:53:07;11.60;99.90
7117;DHT22;3600;48.568;7.870;2023-05-02T00:55:34;11.60;99.90
7117;DHT22;3600;48.568;7.870;2023-05-02T00:58:04;11.60;99.90
7117;DHT22;3600;48.568;7.870;2023-05-02T01:01:10;11.50;99.90
7117;DHT22;3600;48.568;7.870;2023-05-02T01:03:59;11.40;99.90
7117;DHT22;3600;48.568;7.870;2023-05-02T01:07:07;11.40;99.90
7117;DHT22;3600;48.568;7.870;2023-05-02T01:10:08;11.40;99.90
7117;DHT22;3600;48.568;7.870;2023-05-02T01:13:19;11.30;99.90
7117;DHT22;3600;48.568;7.870;2023-05-02T01:15:49;11.40;99.90
7117;DHT22;3600;48.568;7.870;2023-05-02T01:18:21;11.40;99.90
7117;DHT22;3600;48.568;7.870;2023-05-02T01:20:56;11.50;99.90
7117;DHT22;3600;48.568;7.870;2023-05-02T01:29:01;11.50;99.90
7117;DHT22;3600;48.568;7.870;2023-05-02T01:31:33;11.50;99.90
7117;DHT22;3600;48.568;7.870;2023-05-02T01:34:03;11.40;99.90
7117;DHT22;3600;48.568;7.870;2023-05-02T01:36:31;11.30;99.90
7117;DHT22;3600;48.568;7.870;2023-05-02T01:39:00;11.00;99.90
7117;DHT22;3600;48.568;7.870;2023-05-02T01:41:30;10.80;99.90
7117;DHT22;3600;48.568;7.870;2023-05-02T01:43:58;10.90;99.90
7117;DHT22;3600;48.568;7.870;2023-05-02T01:46:31;10.70;99.90
7117;DHT22;3600;48.568;7.870;2023-05-02T01:49:02;10.70;99.90
7117;DHT22;3600;48.568;7.870;2023-05-02T01:51:33;10.40;99.90
7117;DHT22;3600;48.568;7.870;2023-05-02T01:54:03;10.20;99.90
7117;DHT22;3600;48.568;7.870;2023-05-02T01:56:37;10.50;99.90
7117;DHT22;3600;48.568;7.870;2023-05-02T01:59:09;10.80;99.90
7117;DHT22;3600;48.568;7.870;2023-05-02T02:01:43;10.90;99.90
7117;DHT22;3600;48.568;7.870;2023-05-02T02:04:12;10.50;99.90
7117;DHT22;3600;48.568;7.870;2023-05-02T02:06:45;10.70;99.90
7117;DHT22;3600;48.568;7.870;2023-05-02T02:09:12;10.70;99.90
7117;DHT22;3600;48.568;7.870;2023-05-02T02:11:46;10.20;99.90
7117;DHT22;3600;48.568;7.870;2023-05-02T02:14:21;10.40;99.90
7117;DHT22;3600;48.568;7.870;2023-05-02T02:16:49;10.70;99.90
7117;DHT22;3600;48.568;7.870;2023-05-02T02:19:19;10.80;99.90
7117;DHT22;3600;48.568;7.870;2023-05-02T02:21:49;10.70;99.90
7117;DHT22;3600;48.568;7.870;2023-05-02T02:24:17;10.80;99.90
7117;DHT22;3600;48.568;7.870;2023-05-02T02:26:46;10.60;99.90
7117;DHT22;3600;48.568;7.870;2023-05-02T02:29:13;10.60;99.90
7117;DHT22;3600;48.568;7.870;2023-05-02T02:31:40;10.50;99.90
7117;DHT22;3600;48.568;7.870;2023-05-02T02:34:07;10.60;99.90
7117;DHT22;3600;48.568;7.870;2023-05-02T02:42:31;10.70;99.90
7117;DHT22;3600;48.568;7.870;2023-05-02T02:48:24;10.70;99.90
7117;DHT22;3600;48.568;7.870;2023-05-02T02:51:10;10.60;99.90
7117;DHT22;3600;48.568;7.870;2023-05-02T02:56:19;10.30;99.90
7117;DHT22;3600;48.568;7.870;2023-05-02T02:59:08;10.20;99.90
7117;DHT22;3600;48.568;7.870;2023-05-02T03:01:40;10.10;99.90
7117;DHT22;3600;48.568;7.870;2023-05-02T03:04:10;10.10;99.90
7117;DHT22;3600;48.568;7.870;2023-05-02T03:06:39;10.00;99.90
7117;DHT22;3600;48.568;7.870;2023-05-02T03:09:14;9.90;99.90
7117;DHT22;3600;48.568;7.870;2023-05-02T03:11:43;9.80;99.90
7117;DHT22;3600;48.568;7.870;2023-05-02T03:14:11;9.90;99.90
7117;DHT22;3600;48.568;7.870;2023-05-02T03:16:39;10.20;99.90
7117;DHT22;3600;48.568;7.870;2023-05-02T03:19:07;10.00;99.90
7117;DHT22;3600;48.568;7.870;2023-05-02T03:21:34;10.10;99.90
7117;DHT22;3600;48.568;7.870;2023-05-02T03:24:02;10.20;99.90
7117;DHT22;3600;48.568;7.870;2023-05-02T03:26:29;10.00;99.90
7117;DHT22;3600;48.568;7.870;2023-05-02T03:28:56;9.90;99.90
7117;DHT22;3600;48.568;7.870;2023-05-02T03:31:23;9.70;99.90
7117;DHT22;3600;48.568;7.870;2023-05-02T03:33:52;9.60;99.90
7117;DHT22;3600;48.568;7.870;2023-05-02T03:36:20;9.50;99.90
7117;DHT22;3600;48.568;7.870;2023-05-02T03:38:46;9.50;99.90
7117;DHT22;3600;48.568;7.870;2023-05-02T03:41:13;9.40;99.90
7117;DHT22;3600;48.568;7.870;2023-05-02T03:43:40;9.40;99.90
7117;DHT22;3600;48.568;7.870;2023-05-02T03:46:08;9.50;99.90
7117;DHT22;3600;48.568;7.870;2023-05-02T03:48:35;9.50;99.90
7117;DHT22;3600;48.568;7.870;2023-05-02T03:51:04;9.50;99.90
7117;DHT22;3600;48.568;7.870;2023-05-02T03:53:31;9.70;99.90
7117;DHT22;3600;48.568;7.870;2023-05-02T03:55:58;9.60;99.90
7117;DHT22;3600;48.568;7.870;2023-05-02T03:58:25;9.70;99.90
7117;DHT22;3600;48.568;7.870;2023-05-02T04:00:52;9.70;99.90
7117;DHT22;3600;48.568;7.870;2023-05-02T04:03:20;9.60;99.90
7117;DHT22;3600;48.568;7.870;2023-05-02T04:05:47;9.70;99.90
7117;DHT22;3600;48.568;7.870;2023-05-02T04:08:14;9.70;99.90
7117;DHT22;3600;48.568;7.870;2023-05-02T04:10:41;9.70;99.90
7117;DHT22;3600;48.568;7.870;2023-05-02T04:13:07;9.60;99.90
7117;DHT22;3600;48.568;7.870;2023-05-02T04:15:34;9.50;99.90
7117;DHT22;3600;48.568;7.870;2023-05-02T04:18:01;9.40;99.90
7117;DHT22;3600;48.568;7.870;2023-05-02T04:20:28;9.50;99.90
7117;DHT22;3600;48.568;7.870;2023-05-02T04:22:57;9.70;99.90
7117;DHT22;3600;48.568;7.870;2023-05-02T04:25:24;9.90;99.90
7117;DHT22;3600;48.568;7.870;2023-05-02T04:27:51;10.10;99.90
7117;DHT22;3600;48.568;7.870;2023-05-02T04:30:23;10.00;99.90
7117;DHT22;3600;48.568;7.870;2023-05-02T04:32:49;10.00;99.90
7117;DHT22;3600;48.568;7.870;2023-05-02T04:35:16;9.90;99.90
7117;DHT22;3600;48.568;7.870;2023-05-02T04:37:45;9.90;99.90
7117;DHT22;3600;48.568;7.870;2023-05-02T04:40:12;10.00;99.90
7117;DHT22;3600;48.568;7.870;2023-05-02T04:42:39;10.00;99.90
7117;DHT22;3600;48.568;7.870;2023-05-02T04:45:06;9.90;99.90
7117;DHT22;3600;48.568;7.870;2023-05-02T04:47:50;10.00;99.90
7117;DHT22;3600;48.568;7.870;2023-05-02T04:50:26;9.90;99.90
7117;DHT22;3600;48.568;7.870;2023-05-02T04:53:08;9.90;99.90
7117;DHT22;3600;48.568;7.870;2023-05-02T04:55:46;9.70;99.90
7117;DHT22;3600;48.568;7.870;2023-05-02T04:58:12;9.80;99.90
7117;DHT22;3600;48.568;7.870;2023-05-02T05:04:20;9.80;99.90
7117;DHT22;3600;48.568;7.870;2023-05-02T05:06:47;9.70;99.90
7117;DHT22;3600;48.568;7.870;2023-05-02T05:09:15;9.80;99.90
7117;DHT22;3600;48.568;7.870;2023-05-02T05:11:42;9.90;99.90
7117;DHT22;3600;48.568;7.870;2023-05-02T05:14:09;10.00;99.90
7117;DHT22;3600;48.568;7.870;2023-05-02T05:16:35;10.00;99.90
7117;DHT22;3600;48.568;7.870;2023-05-02T05:19:03;10.20;99.90
7117;DHT22;3600;48.568;7.870;2023-05-02T05:21:30;10.30;99.90
7117;DHT22;3600;48.568;7.870;2023-05-02T05:23:57;10.50;99.90
7117;DHT22;3600;48.568;7.870;2023-05-02T05:26:24;10.60;99.90
7117;DHT22;3600;48.568;7.870;2023-05-02T05:28:51;10.70;99.90
7117;DHT22;3600;48.568;7.870;2023-05-02T05:31:18;10.80;99.90
7117;DHT22;3600;48.568;7.870;2023-05-02T05:33:45;10.80;99.90
7117;DHT22;3600;48.568;7.870;2023-05-02T05:36:13;10.90;99.90
7117;DHT22;3600;48.568;7.870;2023-05-02T05:38:42;10.90;99.90
7117;DHT22;3600;48.568;7.870;2023-05-02T05:41:10;11.00;99.90
7117;DHT22;3600;48.568;7.870;2023-05-02T05:43:37;11.20;99.90
7117;DHT22;3600;48.568;7.870;2023-05-02T05:46:04;11.30;99.90
7117;DHT22;3600;48.568;7.870;2023-05-02T05:48:30;11.40;99.90
7117;DHT22;3600;48.568;7.870;2023-05-02T05:51:01;11.30;99.90
7117;DHT22;3600;48.568;7.870;2023-05-02T05:53:28;11.30;99.90
7117;DHT22;3600;48.568;7.870;2023-05-02T05:55:55;11.40;99.90
7117;DHT22;3600;48.568;7.870;2023-05-02T05:58:23;11.50;99.90
7117;DHT22;3600;48.568;7.870;2023-05-02T06:00:50;11.50;99.90
7117;DHT22;3600;48.568;7.870;2023-05-02T06:03:17;11.40;99.90
7117;DHT22;3600;48.568;7.870;2023-05-02T06:05:44;11.50;99.90
7117;DHT22;3600;48.568;7.870;2023-05-02T06:08:11;11.30;99.90
7117;DHT22;3600;48.568;7.870;2023-05-02T06:10:38;11.40;99.90
7117;DHT22;3600;48.568;7.870;2023-05-02T06:13:08;11.50;99.90
7117;DHT22;3600;48.568;7.870;2023-05-02T06:15:35;11.40;99.90
7117;DHT22;3600;48.568;7.870;2023-05-02T06:18:02;11.50;99.90
7117;DHT22;3600;48.568;7.870;2023-05-02T06:20:29;11.70;99.90
7117;DHT22;3600;48.568;7.870;2023-05-02T06:22:56;11.80;99.90
7117;DHT22;3600;48.568;7.870;2023-05-02T06:25:22;11.50;99.90
7117;DHT22;3600;48.568;7.870;2023-05-02T06:27:49;11.60;99.90
7117;DHT22;3600;48.568;7.870;2023-05-02T06:30:16;11.60;99.90
7117;DHT22;3600;48.568;7.870;2023-05-02T06:32:43;11.50;99.90
7117;DHT22;3600;48.568;7.870;2023-05-02T06:35:10;11.70;99.90
7117;DHT22;3600;48.568;7.870;2023-05-02T06:37:37;11.70;99.90
7117;DHT22;3600;48.568;7.870;2023-05-02T06:40:05;11.80;99.90
7117;DHT22;3600;48.568;7.870;2023-05-02T06:42:32;12.10;99.90
7117;DHT22;3600;48.568;7.870;2023-05-02T06:44:58;12.10;99.90
7117;DHT22;3600;48.568;7.870;2023-05-02T06:47:25;12.20;99.90
7117;DHT22;3600;48.568;7.870;2023-05-02T06:49:53;12.20;99.90
7117;DHT22;3600;48.568;7.870;2023-05-02T06:52:20;12.20;99.90
7117;DHT22;3600;48.568;7.870;2023-05-02T06:54:46;11.90;99.90
7117;DHT22;3600;48.568;7.870;2023-05-02T06:57:14;12.30;99.90
7117;DHT22;3600;48.568;7.870;2023-05-02T06:59:41;12.50;99.90
7117;DHT22;3600;48.568;7.870;2023-05-02T07:02:08;12.50;99.90
7117;DHT22;3600;48.568;7.870;2023-05-02T07:04:35;12.20;99.90
7117;DHT22;3600;48.568;7.870;2023-05-02T07:07:02;12.30;99.90
7117;DHT22;3600;48.568;7.870;2023-05-02T07:09:29;12.40;99.90
7117;DHT22;3600;48.568;7.870;2023-05-02T07:11:56;12.70;99.90
7117;DHT22;3600;48.568;7.870;2023-05-02T07:14:23;12.90;99.90
7117;DHT22;3600;48.568;7.870;2023-05-02T07:16:50;12.90;99.90
7117;DHT22;3600;48.568;7.870;2023-05-02T07:19:17;12.50;99.90
7117;DHT22;3600;48.568;7.870;2023-05-02T07:21:44;12.70;99.90
7117;DHT22;3600;48.568;7.870;2023-05-02T07:24:11;12.30;99.90
7117;DHT22;3600;48.568;7.870;2023-05-02T07:26:38;12.20;99.90
7117;DHT22;3600;48.568;7.870;2023-05-02T07:29:05;12.10;99.90
7117;DHT22;3600;48.568;7.870;2023-05-02T07:31:32;12.10;99.90
7117;DHT22;3600;48.568;7.870;2023-05-02T07:33:59;12.40;99.90
7117;DHT22;3600;48.568;7.870;2023-05-02T07:36:25;12.60;99.90
7117;DHT22;3600;48.568;7.870;2023-05-02T07:38:53;13.00;99.90
7117;DHT22;3600;48.568;7.870;2023-05-02T07:41:20;13.00;99.90
7117;DHT22;3600;48.568;7.870;2023-05-02T07:43:50;13.20;99.90
7117;DHT22;3600;48.568;7.870;2023-05-02T07:46:17;13.10;99.90
7117;DHT22;3600;48.568;7.870;2023-05-02T07:48:44;13.30;99.90
7117;DHT22;3600;48.568;7.870;2023-05-02T07:51:11;13.20;99.90
7117;DHT22;3600;48.568;7.870;2023-05-02T07:53:38;13.00;99.90
7117;DHT22;3600;48.568;7.870;2023-05-02T07:56:06;12.90;99.90
7117;DHT22;3600;48.568;7.870;2023-05-02T07:58:34;12.90;99.90
7117;DHT22;3600;48.568;7.870;2023-05-02T08:01:03;13.00;99.90
7117;DHT22;3600;48.568;7.870;2023-05-02T08:03:30;12.80;99.90
7117;DHT22;3600;48.568;7.870;2023-05-02T08:05:57;12.90;99.90
7117;DHT22;3600;48.568;7.870;2023-05-02T08:08:24;13.00;99.90
7117;DHT22;3600;48.568;7.870;2023-05-02T08:10:51;13.60;99.90
7117;DHT22;3600;48.568;7.870;2023-05-02T08:13:18;13.40;99.90
7117;DHT22;3600;48.568;7.870;2023-05-02T08:15:45;13.60;99.90
7117;DHT22;3600;48.568;7.870;2023-05-02T08:18:12;13.50;99.90
7117;DHT22;3600;48.568;7.870;2023-05-02T08:20:38;13.80;99.90
7117;DHT22;3600;48.568;7.870;2023-05-02T08:23:06;13.80;99.90
7117;DHT22;3600;48.568;7.870;2023-05-02T08:25:33;14.00;99.90
7117;DHT22;3600;48.568;7.870;2023-05-02T08:28:00;13.80;99.90
7117;DHT22;3600;48.568;7.870;2023-05-02T08:30:27;14.00;99.90
7117;DHT22;3600;48.568;7.870;2023-05-02T08:32:53;13.60;99.90
7117;DHT22;3600;48.568;7.870;2023-05-02T08:35:20;13.60;99.90
7117;DHT22;3600;48.568;7.870;2023-05-02T08:37:47;13.50;99.90
7117;DHT22;3600;48.568;7.870;2023-05-02T08:40:16;13.30;99.90
7117;DHT22;3600;48.568;7.870;2023-05-02T08:42:59;13.40;99.90
7117;DHT22;3600;48.568;7.870;2023-05-02T08:45:40;13.70;99.90
7117;DHT22;3600;48.568;7.870;2023-05-02T08:48:09;13.50;99.90
7117;DHT22;3600;48.568;7.870;2023-05-02T08:50:38;13.90;99.90
7117;DHT22;3600;48.568;7.870;2023-05-02T08:53:08;14.00;99.90
7117;DHT22;3600;48.568;7.870;2023-05-02T08:55:37;14.30;99.90
7117;DHT22;3600;48.568;7.870;2023-05-02T08:58:07;14.20;99.90
7117;DHT22;3600;48.568;7.870;2023-05-02T09:00:38;14.30;99.90
7117;DHT22;3600;48.568;7.870;2023-05-02T09:05:52;14.70;99.90
7117;DHT22;3600;48.568;7.870;2023-05-02T09:08:24;14.80;99.90
7117;DHT22;3600;48.568;7.870;2023-05-02T09:10:50;14.90;99.90
7117;DHT22;3600;48.568;7.870;2023-05-02T09:16:00;14.90;99.90
7117;DHT22;3600;48.568;7.870;2023-05-02T09:18:33;14.50;99.90
7117;DHT22;3600;48.568;7.870;2023-05-02T09:21:03;14.60;99.90
7117;DHT22;3600;48.568;7.870;2023-05-02T09:23:33;15.00;99.90
7117;DHT22;3600;48.568;7.870;2023-05-02T09:26:00;15.00;99.90
7117;DHT22;3600;48.568;7.870;2023-05-02T09:28:45;15.20;99.90
7117;DHT22;3600;48.568;7.870;2023-05-02T09:31:14;15.20;99.90
7117;DHT22;3600;48.568;7.870;2023-05-02T09:34:10;15.00;99.90
7117;DHT22;3600;48.568;7.870;2023-05-02T09:36:48;15.00;99.90
7117;DHT22;3600;48.568;7.870;2023-05-02T09:39:27;15.10;99.90
7117;DHT22;3600;48.568;7.870;2023-05-02T09:41:57;15.20;99.90
7117;DHT22;3600;48.568;7.870;2023-05-02T09:44:27;15.20;99.90
7117;DHT22;3600;48.568;7.870;2023-05-02T09:47:01;15.10;99.90
7117;DHT22;3600;48.568;7.870;2023-05-02T09:49:58;15.30;99.90
7117;DHT22;3600;48.568;7.870;2023-05-02T09:52:24;15.40;99.90
7117;DHT22;3600;48.568;7.870;2023-05-02T09:54:51;15.40;99.90
7117;DHT22;3600;48.568;7.870;2023-05-02T09:57:18;15.70;99.90
7117;DHT22;3600;48.568;7.870;2023-05-02T09:59:56;15.60;99.90
7117;DHT22;3600;48.568;7.870;2023-05-02T10:02:24;16.00;99.90
7117;DHT22;3600;48.568;7.870;2023-05-02T10:04:52;15.60;99.90
7117;DHT22;3600;48.568;7.870;2023-05-02T10:07:22;15.70;99.90
7117;DHT22;3600;48.568;7.870;2023-05-02T10:09:50;15.30;99.90
7117;DHT22;3600;48.568;7.870;2023-05-02T10:12:19;15.80;99.90
7117;DHT22;3600;48.568;7.870;2023-05-02T10:15:02;16.40;99.90
7117;DHT22;3600;48.568;7.870;2023-05-02T10:17:38;16.70;99.90
7117;DHT22;3600;48.568;7.870;2023-05-02T10:20:09;16.10;99.90
7117;DHT22;3600;48.568;7.870;2023-05-02T10:22:42;16.10;99.90
7117;DHT22;3600;48.568;7.870;2023-05-02T10:25:11;16.60;99.90
7117;DHT22;3600;48.568;7.870;2023-05-02T10:27:39;16.70;99.90
7117;DHT22;3600;48.568;7.870;2023-05-02T10:30:06;16.80;99.90
7117;DHT22;3600;48.568;7.870;2023-05-02T10:32:35;16.90;99.90
7117;DHT22;3600;48.568;7.870;2023-05-02T10:35:05;16.60;99.90
7117;DHT22;3600;48.568;7.870;2023-05-02T10:37:35;16.20;99.90
7117;DHT22;3600;48.568;7.870;2023-05-02T10:40:04;16.50;99.90
7117;DHT22;3600;48.568;7.870;2023-05-02T10:42:37;16.90;99.90
7117;DHT22;3600;48.568;7.870;2023-05-02T10:45:29;17.10;99.90
7117;DHT22;3600;48.568;7.870;2023-05-02T10:50:47;17.20;99.90
7117;DHT22;3600;48.568;7.870;2023-05-02T10:58:36;16.80;99.90
7117;DHT22;3600;48.568;7.870;2023-05-02T11:04:15;16.70;99.90
7117;DHT22;3600;48.568;7.870;2023-05-02T11:11:55;16.90;99.90
7117;DHT22;3600;48.568;7.870;2023-05-02T11:24:47;17.60;99.90
7117;DHT22;3600;48.568;7.870;2023-05-02T11:35:28;17.60;99.90
7117;DHT22;3600;48.568;7.870;2023-05-02T11:38:09;17.90;99.90
7117;DHT22;3600;48.568;7.870;2023-05-02T11:40:37;18.00;99.90
7117;DHT22;3600;48.568;7.870;2023-05-02T11:43:32;18.00;99.90
7117;DHT22;3600;48.568;7.870;2023-05-02T11:46:00;18.00;99.90
7117;DHT22;3600;48.568;7.870;2023-05-02T11:48:28;18.50;99.90
7117;DHT22;3600;48.568;7.870;2023-05-02T11:50:58;18.70;99.90
7117;DHT22;3600;48.568;7.870;2023-05-02T11:53:29;17.50;99.10
7117;DHT22;3600;48.568;7.870;2023-05-02T11:55:58;17.60;99.90
7117;DHT22;3600;48.568;7.870;2023-05-02T11:58:27;17.50;99.90
7117;DHT22;3600;48.568;7.870;2023-05-02T12:01:12;17.70;99.90
7117;DHT22;3600;48.568;7.870;2023-05-02T12:03:39;18.30;99.90
7117;DHT22;3600;48.568;7.870;2023-05-02T12:06:12;18.20;99.90
7117;DHT22;3600;48.568;7.870;2023-05-02T12:08:41;18.00;99.90
7117;DHT22;3600;48.568;7.870;2023-05-02T12:11:09;18.60;98.60
7117;DHT22;3600;48.568;7.870;2023-05-02T12:13:47;17.90;99.20
7117;DHT22;3600;48.568;7.870;2023-05-02T12:16:16;18.10;99.90
7117;DHT22;3600;48.568;7.870;2023-05-02T12:18:44;18.90;99.90
7117;DHT22;3600;48.568;7.870;2023-05-02T12:21:12;19.20;99.90
7117;DHT22;3600;48.568;7.870;2023-05-02T12:23:39;19.10;98.80
7117;DHT22;3600;48.568;7.870;2023-05-02T12:28:51;18.30;99.30
7117;DHT22;3600;48.568;7.870;2023-05-02T12:31:21;18.70;99.70
7117;DHT22;3600;48.568;7.870;2023-05-02T12:33:48;19.40;99.90
7117;DHT22;3600;48.568;7.870;2023-05-02T12:36:17;18.30;98.50
7117;DHT22;3600;48.568;7.870;2023-05-02T12:38:49;18.90;99.90
7117;DHT22;3600;48.568;7.870;2023-05-02T12:41:33;19.50;99.90
7117;DHT22;3600;48.568;7.870;2023-05-02T12:44:06;19.80;97.80
7117;DHT22;3600;48.568;7.870;2023-05-02T12:46:33;19.70;97.20
7117;DHT22;3600;48.568;7.870;2023-05-02T12:49:05;19.70;96.60
7117;DHT22;3600;48.568;7.870;2023-05-02T12:51:39;19.40;96.60
7117;DHT22;3600;48.568;7.870;2023-05-02T12:54:06;19.20;97.10
7117;DHT22;3600;48.568;7.870;2023-05-02T12:56:42;18.60;99.90
7117;DHT22;3600;48.568;7.870;2023-05-02T12:59:27;19.30;99.60
7117;DHT22;3600;48.568;7.870;2023-05-02T13:01:55;19.00;99.70
7117;DHT22;3600;48.568;7.870;2023-05-02T13:04:36;18.90;99.50
7117;DHT22;3600;48.568;7.870;2023-05-02T13:07:03;18.50;99.90
7117;DHT22;3600;48.568;7.870;2023-05-02T13:09:29;18.20;99.90
7117;DHT22;3600;48.568;7.870;2023-05-02T13:11:56;16.60;99.90
7117;DHT22;3600;48.568;7.870;2023-05-02T13:14:24;16.00;99.90
7117;DHT22;3600;48.568;7.870;2023-05-02T13:16:51;15.50;99.90
7117;DHT22;3600;48.568;7.870;2023-05-02T13:19:21;15.00;99.90
7117;DHT22;3600;48.568;7.870;2023-05-02T13:21:48;15.00;99.90
7117;DHT22;3600;48.568;7.870;2023-05-02T13:24:15;14.90;99.90
7117;DHT22;3600;48.568;7.870;2023-05-02T13:26:43;15.10;99.90
7117;DHT22;3600;48.568;7.870;2023-05-02T13:29:10;15.40;99.90
7117;DHT22;3600;48.568;7.870;2023-05-02T13:31:38;15.40;99.90
7117;DHT22;3600;48.568;7.870;2023-05-02T13:34:05;15.70;99.90
7117;DHT22;3600;48.568;7.870;2023-05-02T13:36:32;15.70;99.90
7117;DHT22;3600;48.568;7.870;2023-05-02T13:38:59;15.70;99.90
7117;DHT22;3600;48.568;7.870;2023-05-02T13:41:27;15.60;99.90
7117;DHT22;3600;48.568;7.870;2023-05-02T13:43:54;15.80;99.90
7117;DHT22;3600;48.568;7.870;2023-05-02T13:46:22;15.90;99.90
7117;DHT22;3600;48.568;7.870;2023-05-02T13:48:49;16.10;99.90
7117;DHT22;3600;48.568;7.870;2023-05-02T13:51:16;15.80;99.90
7117;DHT22;3600;48.568;7.870;2023-05-02T13:53:43;16.10;99.90
7117;DHT22;3600;48.568;7.870;2023-05-02T13:56:09;16.10;99.90
7117;DHT22;3600;48.568;7.870;2023-05-02T13:58:36;16.20;99.90
7117;DHT22;3600;48.568;7.870;2023-05-02T14:01:03;16.20;99.90
7117;DHT22;3600;48.568;7.870;2023-05-02T14:03:30;16.20;99.90
7117;DHT22;3600;48.568;7.870;2023-05-02T14:05:57;15.90;99.90
7117;DHT22;3600;48.568;7.870;2023-05-02T14:08:24;16.10;99.90
7117;DHT22;3600;48.568;7.870;2023-05-02T14:10:51;16.10;99.90
7117;DHT22;3600;48.568;7.870;2023-05-02T14:13:17;16.10;99.90
7117;DHT22;3600;48.568;7.870;2023-05-02T14:15:44;16.30;99.90
7117;DHT22;3600;48.568;7.870;2023-05-02T14:18:11;16.40;99.90
7117;DHT22;3600;48.568;7.870;2023-05-02T14:20:38;16.40;99.90
7117;DHT22;3600;48.568;7.870;2023-05-02T14:23:05;16.30;99.90
7117;DHT22;3600;48.568;7.870;2023-05-02T14:25:34;16.60;99.90
7117;DHT22;3600;48.568;7.870;2023-05-02T14:28:01;16.60;99.90
7117;DHT22;3600;48.568;7.870;2023-05-02T14:30:28;16.90;99.90
7117;DHT22;3600;48.568;7.870;2023-05-02T14:32:55;17.20;99.90
7117;DHT22;3600;48.568;7.870;2023-05-02T14:35:22;17.10;99.90
7117;DHT22;3600;48.568;7.870;2023-05-02T14:37:49;17.30;99.90
7117;DHT22;3600;48.568;7.870;2023-05-02T14:40:16;17.80;99.90
7117;DHT22;3600;48.568;7.870;2023-05-02T14:42:44;18.00;99.90
7117;DHT22;3600;48.568;7.870;2023-05-02T14:45:11;18.50;99.90
7117;DHT22;3600;48.568;7.870;2023-05-02T14:47:38;18.70;99.90
7117;DHT22;3600;48.568;7.870;2023-05-02T14:50:05;19.10;99.90
7117;DHT22;3600;48.568;7.870;2023-05-02T14:52:33;19.00;99.90
7117;DHT22;3600;48.568;7.870;2023-05-02T14:55:00;18.70;98.50
7117;DHT22;3600;48.568;7.870;2023-05-02T14:57:27;18.70;99.10
7117;DHT22;3600;48.568;7.870;2023-05-02T14:59:54;19.10;96.80
7117;DHT22;3600;48.568;7.870;2023-05-02T15:02:22;19.40;98.40
7117;DHT22;3600;48.568;7.870;2023-05-02T15:04:49;19.60;98.30
7117;DHT22;3600;48.568;7.870;2023-05-02T15:07:16;18.40;96.30
7117;DHT22;3600;48.568;7.870;2023-05-02T15:09:43;18.50;99.70
7117;DHT22;3600;48.568;7.870;2023-05-02T15:12:10;19.20;97.10
7117;DHT22;3600;48.568;7.870;2023-05-02T15:14:37;19.70;97.60
7117;DHT22;3600;48.568;7.870;2023-05-02T15:17:03;19.50;97.00
7117;DHT22;3600;48.568;7.870;2023-05-02T15:19:30;19.00;95.20
7117;DHT22;3600;48.568;7.870;2023-05-02T15:21:57;18.50;96.50
7117;DHT22;3600;48.568;7.870;2023-05-02T15:24:24;19.10;97.80
7117;DHT22;3600;48.568;7.870;2023-05-02T15:26:51;19.70;97.70
7117;DHT22;3600;48.568;7.870;2023-05-02T15:29:18;20.00;95.20
7117;DHT22;3600;48.568;7.870;2023-05-02T15:31:45;19.60;95.10
7117;DHT22;3600;48.568;7.870;2023-05-02T15:34:12;19.90;97.00
7117;DHT22;3600;48.568;7.870;2023-05-02T15:36:38;19.10;96.00
7117;DHT22;3600;48.568;7.870;2023-05-02T15:39:06;19.60;96.90
7117;DHT22;3600;48.568;7.870;2023-05-02T15:41:33;19.90;97.30
7117;DHT22;3600;48.568;7.870;2023-05-02T15:44:00;20.40;97.00
7117;DHT22;3600;48.568;7.870;2023-05-02T15:46:27;20.40;96.20
7117;DHT22;3600;48.568;7.870;2023-05-02T15:48:54;20.30;97.00
7117;DHT22;3600;48.568;7.870;2023-05-02T15:51:20;20.30;95.60
7117;DHT22;3600;48.568;7.870;2023-05-02T15:53:48;20.10;97.10
7117;DHT22;3600;48.568;7.870;2023-05-02T15:56:17;20.30;95.60
7117;DHT22;3600;48.568;7.870;2023-05-02T15:58:46;20.30;96.30
7117;DHT22;3600;48.568;7.870;2023-05-02T16:01:13;20.10;96.40
7117;DHT22;3600;48.568;7.870;2023-05-02T16:03:40;19.90;96.90
7117;DHT22;3600;48.568;7.870;2023-05-02T16:06:08;19.70;96.20
7117;DHT22;3600;48.568;7.870;2023-05-02T16:08:35;19.40;97.70
7117;DHT22;3600;48.568;7.870;2023-05-02T16:11:01;19.70;97.10
7117;DHT22;3600;48.568;7.870;2023-05-02T16:13:28;19.70;96.20
7117;DHT22;3600;48.568;7.870;2023-05-02T16:15:55;19.60;97.00
7117;DHT22;3600;48.568;7.870;2023-05-02T16:18:22;19.60;97.10
7117;DHT22;3600;48.568;7.870;2023-05-02T16:20:55;19.40;96.30
7117;DHT22;3600;48.568;7.870;2023-05-02T16:23:23;19.20;96.50
7117;DHT22;3600;48.568;7.870;2023-05-02T16:25:58;19.10;97.80
7117;DHT22;3600;48.568;7.870;2023-05-02T16:28:25;19.30;97.20
7117;DHT22;3600;48.568;7.870;2023-05-02T16:30:52;19.20;97.40
7117;DHT22;3600;48.568;7.870;2023-05-02T16:33:19;18.70;98.10
7117;DHT22;3600;48.568;7.870;2023-05-02T16:35:47;19.20;98.20
7117;DHT22;3600;48.568;7.870;2023-05-02T16:38:14;19.10;97.80
7117;DHT22;3600;48.568;7.870;2023-05-02T16:40:41;18.80;98.20
7117;DHT22;3600;48.568;7.870;2023-05-02T16:43:08;19.30;98.10
7117;DHT22;3600;48.568;7.870;2023-05-02T16:45:34;19.40;96.90
7117;DHT22;3600;48.568;7.870;2023-05-02T16:48:01;19.50;97.30
7117;DHT22;3600;48.568;7.870;2023-05-02T16:50:30;19.20;97.80
7117;DHT22;3600;48.568;7.870;2023-05-02T16:52:56;18.70;97.30
7117;DHT22;3600;48.568;7.870;2023-05-02T16:55:23;19.00;98.20
7117;DHT22;3600;48.568;7.870;2023-05-02T16:57:50;19.00;98.80
7117;DHT22;3600;48.568;7.870;2023-05-02T17:00:17;19.00;97.30
7117;DHT22;3600;48.568;7.870;2023-05-02T17:02:44;19.10;97.90
7117;DHT22;3600;48.568;7.870;2023-05-02T17:05:12;19.10;97.60
7117;DHT22;3600;48.568;7.870;2023-05-02T17:07:39;19.10;97.80
7117;DHT22;3600;48.568;7.870;2023-05-02T17:10:06;18.70;97.40
7117;DHT22;3600;48.568;7.870;2023-05-02T17:12:33;18.80;97.80
7117;DHT22;3600;48.568;7.870;2023-05-02T17:15:00;18.80;97.20
7117;DHT22;3600;48.568;7.870;2023-05-02T17:17:29;18.40;96.90
7117;DHT22;3600;48.568;7.870;2023-05-02T17:19:56;18.20;97.00